createdAt,value
2024-05-09T00:02:25.086Z,5.55
2024-05-09T00:04:55.437Z,5.53
2024-05-09T00:07:25.807Z,5.13
2024-05-09T00:09:58.558Z,5.80
2024-05-09T00:12:28.814Z,7.43
2024-05-09T00:14:59.002Z,7.68
2024-05-09T00:17:29.264Z,7.70
2024-05-09T00:19:59.504Z,7.28
2024-05-09T00:22:29.675Z,6.30
2024-05-09T00:25:02.420Z,6.72
2024-05-09T00:27:32.535Z,7.00
2024-05-09T00:30:04.179Z,5.75
2024-05-09T00:32:34.665Z,5.22
2024-05-09T00:35:04.947Z,4.75
2024-05-09T00:37:35.152Z,4.18
2024-05-09T00:40:18.264Z,4.15
2024-05-09T00:42:53.099Z,4.30
2024-05-09T00:45:23.313Z,4.50
2024-05-09T00:47:53.988Z,4.20
2024-05-09T00:50:29.984Z,4.28
2024-05-09T00:53:06.656Z,3.80
2024-05-09T00:55:40.960Z,4.50
2024-05-09T00:58:14.939Z,4.20
2024-05-09T01:00:45.961Z,4.68
2024-05-09T01:03:16.244Z,4.70
2024-05-09T01:05:47.098Z,4.35
2024-05-09T01:08:17.519Z,5.03
2024-05-09T01:10:50.530Z,5.30
2024-05-09T01:13:20.948Z,5.13
2024-05-09T01:15:53.941Z,4.35
2024-05-09T01:18:24.795Z,4.32
2024-05-09T01:20:55.208Z,3.90
2024-05-09T01:23:28.182Z,3.70
2024-05-09T01:25:58.538Z,4.15
2024-05-09T01:28:28.978Z,3.80
2024-05-09T01:30:59.157Z,3.90
2024-05-09T01:33:29.674Z,3.97
2024-05-09T01:38:32.853Z,4.80
2024-05-09T01:41:03.235Z,4.32
2024-05-09T01:43:33.407Z,4.20
2024-05-09T01:46:03.642Z,4.20
2024-05-09T01:48:33.944Z,4.18
2024-05-09T01:51:04.276Z,4.30
2024-05-09T01:53:37.385Z,4.90
2024-05-09T01:56:08.556Z,4.82
2024-05-09T01:58:38.751Z,4.25
2024-05-09T02:01:09.092Z,4.40
2024-05-09T02:03:39.301Z,3.97
2024-05-09T02:08:42.612Z,4.40
2024-05-09T02:11:12.882Z,4.60
2024-05-09T02:13:44.666Z,4.60
2024-05-09T02:16:15.138Z,4.47
2024-05-09T02:18:45.317Z,4.10
2024-05-09T02:21:15.735Z,4.20
2024-05-09T02:23:48.447Z,5.07
2024-05-09T02:26:18.767Z,5.00
2024-05-09T02:28:48.903Z,4.90
2024-05-09T02:31:19.167Z,4.70
2024-05-09T02:33:49.714Z,4.90
2024-05-09T02:36:20.222Z,4.97
2024-05-09T02:38:50.474Z,4.38
2024-05-09T02:41:20.709Z,4.97
2024-05-09T02:43:48.269Z,4.80
2024-05-09T02:46:18.308Z,5.05
2024-05-09T02:48:46.038Z,4.68
2024-05-09T02:51:16.179Z,5.85
2024-05-09T02:53:43.706Z,4.63
2024-05-09T02:56:16.460Z,4.72
2024-05-09T02:58:44.035Z,4.90
2024-05-09T03:01:14.157Z,4.55
2024-05-09T03:03:45.283Z,4.85
2024-05-09T03:06:15.527Z,4.78
2024-05-09T03:08:45.676Z,5.10
2024-05-09T03:11:26.999Z,5.22
2024-05-09T03:13:55.535Z,5.50
2024-05-09T03:16:25.605Z,5.13
2024-05-09T03:18:54.779Z,5.10
2024-05-09T03:21:25.415Z,4.78
2024-05-09T03:23:53.001Z,4.78
2024-05-09T03:26:25.945Z,5.05
2024-05-09T03:28:53.617Z,4.80
2024-05-09T03:31:23.790Z,5.00
2024-05-09T03:33:51.590Z,5.75
2024-05-09T03:36:21.780Z,5.65
2024-05-09T03:38:52.351Z,5.93
2024-05-09T03:41:26.686Z,6.05
2024-05-09T03:43:56.884Z,6.60
2024-05-09T03:46:24.422Z,5.80
2024-05-09T03:48:54.571Z,6.03
2024-05-09T03:51:22.204Z,5.90
2024-05-09T03:53:52.369Z,5.20
2024-05-09T03:56:19.958Z,5.15
2024-05-09T03:58:52.740Z,5.30
2024-05-09T04:01:20.287Z,5.07
2024-05-09T04:03:50.521Z,4.80
2024-05-09T04:06:22.548Z,4.88
2024-05-09T04:08:52.673Z,4.97
2024-05-09T04:11:20.338Z,5.50
2024-05-09T04:13:53.191Z,5.30
2024-05-09T04:16:20.668Z,4.70
2024-05-09T04:18:50.815Z,3.88
2024-05-09T04:21:18.733Z,4.30
2024-05-09T04:23:48.833Z,4.18
2024-05-09T04:26:16.506Z,3.97
2024-05-09T04:28:46.597Z,3.92
2024-05-09T04:31:17.518Z,4.15
2024-05-09T04:33:47.913Z,3.85
2024-05-09T04:36:15.482Z,4.07
2024-05-09T04:38:45.609Z,4.00
2024-05-09T04:41:13.310Z,4.15
2024-05-09T04:43:43.563Z,4.60
2024-05-09T04:46:11.105Z,4.90
2024-05-09T04:48:43.920Z,4.18
2024-05-09T04:51:11.607Z,4.40
2024-05-09T04:53:41.677Z,4.18
2024-05-09T04:56:09.255Z,3.80
2024-05-09T04:58:40.331Z,4.03
2024-05-09T05:01:07.977Z,4.55
2024-05-09T05:03:38.246Z,4.40
2024-05-09T05:06:08.789Z,4.10
2024-05-09T05:08:39.146Z,4.53
2024-05-09T05:11:06.869Z,4.32
2024-05-09T05:13:40.965Z,4.32
2024-05-09T05:16:10.349Z,4.70
2024-05-09T05:18:40.582Z,4.50
2024-05-09T05:21:12.114Z,4.10
2024-05-09T05:23:43.098Z,4.72
2024-05-09T05:26:10.764Z,5.43
2024-05-09T05:28:41.086Z,5.30
2024-05-09T05:31:08.628Z,6.65
2024-05-09T05:33:39.222Z,6.22
2024-05-09T05:36:10.195Z,6.65
2024-05-09T05:38:40.425Z,7.40
2024-05-09T05:41:08.223Z,7.80
2024-05-09T05:43:38.461Z,7.85
2024-05-09T05:46:06.151Z,8.60
2024-05-09T05:48:36.333Z,8.07
2024-05-09T05:51:05.784Z,8.68
2024-05-09T05:53:38.903Z,9.70
2024-05-09T05:56:06.978Z,11.10
2024-05-09T05:58:37.208Z,10.45
2024-05-09T06:01:05.818Z,12.15
2024-05-09T06:03:36.077Z,14.25
2024-05-09T06:06:04.302Z,16.30
2024-05-09T06:08:34.631Z,17.75
2024-05-09T06:11:05.224Z,21.23
2024-05-09T06:13:35.407Z,17.30
2024-05-09T06:16:05.014Z,16.25
2024-05-09T06:18:35.526Z,17.30
2024-05-09T06:21:03.482Z,18.73
2024-05-09T06:23:33.979Z,17.35
2024-05-09T06:26:01.576Z,17.88
2024-05-09T06:28:34.396Z,18.27
2024-05-09T06:31:02.854Z,18.50
2024-05-09T06:33:33.405Z,18.55
2024-05-09T06:36:01.211Z,19.45
2024-05-09T06:38:32.846Z,21.52
2024-05-09T06:41:00.480Z,23.33
2024-05-09T06:43:33.582Z,22.02
2024-05-09T06:46:01.320Z,25.10
2024-05-09T06:48:31.583Z,24.48
2024-05-09T06:50:59.292Z,26.02
2024-05-09T06:53:29.637Z,25.55
2024-05-09T06:55:57.242Z,26.85
2024-05-09T06:58:27.410Z,25.63
2024-05-09T07:00:57.554Z,26.83
2024-05-09T07:03:27.903Z,25.95
2024-05-09T07:05:55.576Z,26.98
2024-05-09T07:08:26.194Z,29.02
2024-05-09T07:13:25.265Z,27.70
2024-05-09T07:15:53.015Z,29.20
2024-05-09T07:18:26.219Z,27.92
2024-05-09T07:20:54.168Z,28.42
2024-05-09T07:23:24.601Z,26.70
2024-05-09T07:25:52.808Z,28.38
2024-05-09T07:28:24.799Z,28.42
2024-05-09T07:30:55.742Z,28.23
2024-05-09T07:33:26.060Z,28.42
2024-05-09T07:35:59.491Z,28.63
2024-05-09T07:38:27.042Z,28.08
2024-05-09T07:40:57.166Z,30.08
2024-05-09T07:43:24.653Z,27.15
2024-05-09T07:45:56.503Z,28.13
2024-05-09T07:50:00.957Z,28.33
2024-05-09T07:53:52.107Z,28.48
2024-05-09T07:56:26.038Z,27.67
2024-05-09T07:58:54.420Z,27.30
2024-05-09T08:01:27.122Z,27.85
2024-05-09T08:03:57.804Z,29.13
2024-05-09T08:08:57.912Z,25.90
2024-05-09T08:11:29.785Z,27.05
2024-05-09T08:13:57.311Z,26.00
2024-05-09T08:16:27.647Z,25.02
2024-05-09T08:18:58.145Z,26.27
2024-05-09T08:21:29.717Z,27.65
2024-05-09T08:23:57.364Z,25.30
2024-05-09T08:26:27.474Z,27.85
2024-05-09T08:28:54.957Z,28.00
2024-05-09T08:31:25.172Z,27.90
2024-05-09T08:33:53.086Z,28.67
2024-05-09T08:36:26.024Z,26.60
2024-05-09T08:38:53.680Z,27.42
2024-05-09T08:41:23.751Z,27.17
2024-05-09T08:43:51.254Z,27.20
2024-05-09T08:46:21.567Z,28.75
2024-05-09T08:48:51.859Z,28.00
2024-05-09T08:51:25.003Z,27.42
2024-05-09T08:53:52.686Z,26.08
2024-05-09T08:56:24.428Z,27.90
2024-05-09T08:58:56.817Z,25.80
2024-05-09T09:01:27.989Z,27.20
2024-05-09T09:03:56.253Z,28.88
2024-05-09T09:06:29.347Z,28.60
2024-05-09T09:08:58.114Z,28.65
2024-05-09T09:11:28.387Z,29.85
2024-05-09T09:13:55.988Z,31.27
2024-05-09T09:16:35.950Z,31.42
2024-05-09T09:19:04.662Z,31.70
2024-05-09T09:21:37.539Z,31.05
2024-05-09T09:24:06.968Z,29.48
2024-05-09T09:26:38.255Z,31.42
2024-05-09T09:29:05.827Z,32.47
2024-05-09T09:31:37.311Z,33.85
2024-05-09T09:34:08.482Z,34.08
2024-05-09T09:36:45.005Z,35.92
2024-05-09T09:39:14.429Z,33.75
2024-05-09T09:41:47.981Z,32.72
2024-05-09T09:44:17.523Z,32.53
2024-05-09T09:46:49.137Z,33.00
2024-05-09T09:49:18.844Z,33.72
2024-05-09T09:51:54.097Z,30.10
2024-05-09T09:54:22.434Z,27.23
2024-05-09T09:56:54.651Z,28.00
2024-05-09T09:59:22.586Z,27.02
2024-05-09T10:01:52.832Z,27.48
2024-05-09T10:04:20.773Z,26.15
2024-05-09T10:07:00.348Z,24.67
2024-05-09T10:09:28.015Z,26.98
2024-05-09T10:12:00.367Z,25.85
2024-05-09T10:14:30.959Z,28.23
2024-05-09T10:17:07.664Z,27.33
2024-05-09T10:19:35.367Z,28.15
2024-05-09T10:22:08.888Z,29.35
2024-05-09T10:24:47.922Z,28.98
2024-05-09T10:27:18.316Z,28.40
2024-05-09T10:29:52.912Z,29.20
2024-05-09T10:32:23.199Z,28.35
2024-05-09T10:35:01.093Z,30.38
2024-05-09T10:37:34.961Z,30.63
2024-05-09T10:40:05.501Z,28.40
2024-05-09T10:42:37.547Z,31.42
2024-05-09T10:45:06.151Z,30.33
2024-05-09T10:47:36.298Z,29.58
2024-05-09T10:50:07.878Z,28.23
2024-05-09T10:52:43.192Z,29.08
2024-05-09T10:55:10.704Z,28.60
2024-05-09T10:57:44.159Z,28.83
2024-05-09T11:00:19.348Z,29.10
2024-05-09T11:02:57.547Z,27.35
2024-05-09T11:05:25.354Z,28.63
2024-05-09T11:07:58.395Z,27.20
2024-05-09T11:10:33.382Z,28.67
2024-05-09T11:13:04.614Z,29.10
2024-05-09T11:15:39.395Z,27.65
2024-05-09T11:18:10.251Z,28.65
2024-05-09T11:20:38.787Z,30.05
2024-05-09T11:23:11.710Z,28.52
2024-05-09T11:25:39.271Z,28.77
2024-05-09T11:28:10.336Z,28.50
2024-05-09T11:30:37.980Z,28.23
2024-05-09T11:33:08.708Z,31.52
2024-05-09T11:35:36.141Z,29.80
2024-05-09T11:38:06.639Z,28.42
2024-05-09T11:40:39.370Z,28.58
2024-05-09T11:43:10.070Z,28.73
2024-05-09T11:48:08.509Z,27.73
2024-05-09T11:50:36.457Z,28.30
2024-05-09T11:53:07.959Z,29.55
2024-05-09T11:55:38.258Z,29.80
2024-05-09T11:58:08.953Z,30.23
2024-05-09T12:00:37.767Z,29.95
2024-05-09T12:03:08.887Z,30.15
2024-05-09T12:05:36.572Z,32.70
2024-05-09T12:08:07.422Z,33.83
2024-05-09T12:10:37.783Z,34.40
2024-05-09T12:13:08.529Z,32.83
2024-05-09T12:18:09.219Z,35.73
2024-05-09T12:20:39.415Z,34.53
2024-05-09T12:23:11.236Z,35.95
2024-05-09T12:25:41.499Z,34.67
2024-05-09T12:28:11.659Z,35.50
2024-05-09T12:30:40.766Z,37.92
2024-05-09T12:33:13.897Z,36.00
2024-05-09T12:35:44.598Z,36.85
2024-05-09T12:38:18.316Z,37.30
2024-05-09T12:40:48.449Z,38.03
2024-05-09T12:43:20.399Z,39.58
2024-05-09T12:45:48.152Z,38.63
2024-05-09T12:48:18.449Z,38.53
2024-05-09T12:50:46.262Z,37.50
2024-05-09T12:53:16.726Z,36.58
2024-05-09T12:55:53.566Z,36.75
2024-05-09T12:58:30.399Z,37.47
2024-05-09T13:03:28.279Z,38.08
2024-05-09T13:05:56.306Z,37.47
2024-05-09T13:08:26.910Z,38.92
2024-05-09T13:13:24.935Z,38.22
2024-05-09T13:15:55.294Z,36.80
2024-05-09T13:18:25.618Z,39.20
2024-05-09T13:20:53.326Z,37.17
2024-05-09T13:23:23.495Z,36.80
2024-05-09T13:25:51.123Z,35.33
2024-05-09T13:28:22.677Z,35.88
2024-05-09T13:30:50.284Z,34.30
2024-05-09T13:33:23.283Z,34.47
2024-05-09T13:35:51.277Z,31.35
2024-05-09T13:38:22.575Z,31.88
2024-05-09T13:40:50.931Z,31.27
2024-05-09T13:43:23.692Z,31.05
2024-05-09T13:45:52.098Z,29.73
2024-05-09T13:48:25.134Z,27.45
2024-05-09T13:50:52.848Z,29.83
2024-05-09T13:53:23.141Z,32.20
2024-05-09T13:55:51.276Z,30.75
2024-05-09T13:58:23.569Z,30.70
2024-05-09T14:00:53.658Z,30.52
2024-05-09T14:03:29.756Z,30.70
2024-05-09T14:05:57.731Z,30.75
2024-05-09T14:08:28.016Z,29.60
2024-05-09T14:13:26.608Z,29.48
2024-05-09T14:15:54.402Z,27.50
2024-05-09T14:18:27.407Z,27.92
2024-05-09T14:20:55.008Z,24.48
2024-05-09T14:23:25.906Z,25.38
2024-05-09T14:25:53.689Z,25.15
2024-05-09T14:28:26.924Z,25.73
2024-05-09T14:30:56.622Z,25.15
2024-05-09T14:33:30.820Z,23.10
2024-05-09T14:35:58.807Z,22.42
2024-05-09T14:38:30.347Z,22.85
2024-05-09T14:40:58.786Z,21.80
2024-05-09T14:43:29.135Z,20.45
2024-05-09T14:45:57.067Z,21.73
2024-05-09T14:48:30.264Z,22.00
2024-05-09T14:50:57.742Z,21.20
2024-05-09T14:53:28.443Z,19.90
2024-05-09T14:55:56.162Z,23.83
2024-05-09T14:58:26.488Z,23.52
2024-05-09T15:00:54.315Z,22.70
2024-05-09T15:03:24.743Z,21.83
2024-05-09T15:05:55.259Z,23.33
2024-05-09T15:08:25.659Z,22.98
2024-05-09T15:10:53.426Z,22.33
2024-05-09T15:13:24.047Z,21.52
2024-05-09T15:18:22.189Z,22.20
2024-05-09T15:20:49.855Z,24.00
2024-05-09T15:23:23.153Z,24.10
2024-05-09T15:25:50.681Z,24.85
2024-05-09T15:28:20.879Z,21.52
2024-05-09T15:30:48.650Z,21.73
2024-05-09T15:33:19.190Z,21.25
2024-05-09T15:35:47.470Z,20.08
2024-05-09T15:38:18.816Z,18.20
2024-05-09T15:40:49.199Z,20.30
2024-05-09T15:43:19.485Z,19.05
2024-05-09T15:45:47.246Z,18.60
2024-05-09T15:48:18.385Z,18.38
2024-05-09T15:50:46.342Z,17.52
2024-05-09T15:53:16.508Z,17.52
2024-05-09T15:55:44.937Z,16.98
2024-05-09T15:58:18.517Z,17.42
2024-05-09T16:00:48.731Z,18.65
2024-05-09T16:03:21.273Z,17.13
2024-05-09T16:05:50.573Z,18.25
2024-05-09T16:08:21.006Z,17.17
2024-05-09T16:10:48.805Z,17.15
2024-05-09T16:13:22.033Z,16.15
2024-05-09T16:15:49.760Z,15.93
2024-05-09T16:18:19.987Z,16.80
2024-05-09T16:20:50.012Z,16.80
2024-05-09T16:23:20.671Z,16.15
2024-05-09T16:25:48.715Z,16.20
2024-05-09T16:28:23.062Z,16.17
2024-05-09T16:30:52.038Z,15.68
2024-05-09T16:33:25.656Z,14.90
2024-05-09T16:35:53.591Z,15.10
2024-05-09T16:38:23.792Z,15.18
2024-05-09T16:40:51.297Z,14.63
2024-05-09T16:43:24.337Z,14.63
2024-05-09T16:45:51.902Z,14.00
2024-05-09T16:48:22.438Z,17.60
2024-05-09T16:53:20.584Z,15.63
2024-05-09T16:55:48.365Z,15.70
2024-05-09T16:58:18.548Z,13.85
2024-05-09T17:00:50.417Z,15.23
2024-05-09T17:03:21.244Z,16.08
2024-05-09T17:05:50.481Z,14.52
2024-05-09T17:08:20.832Z,14.73
2024-05-09T17:10:49.695Z,14.63
2024-05-09T17:13:20.904Z,14.95
2024-05-09T17:15:54.041Z,15.20
2024-05-09T17:18:24.576Z,14.32
2024-05-09T17:20:52.530Z,15.25
2024-05-09T17:23:22.734Z,14.43
2024-05-09T17:25:50.374Z,14.63
2024-05-09T17:28:20.717Z,15.63
2024-05-09T17:30:50.920Z,14.77
2024-05-09T17:33:21.288Z,14.95
2024-05-09T17:35:50.730Z,16.15
2024-05-09T17:38:22.978Z,17.83
2024-05-09T17:40:52.029Z,17.42
2024-05-09T17:43:22.513Z,15.57
2024-05-09T17:45:52.772Z,16.15
2024-05-09T17:48:23.160Z,14.65
2024-05-09T17:50:51.858Z,14.55
2024-05-09T17:53:22.602Z,15.38
2024-05-09T17:55:50.327Z,16.65
2024-05-09T17:58:20.655Z,16.33
2024-05-09T18:00:48.469Z,14.82
2024-05-09T18:03:22.863Z,15.48
2024-05-09T18:05:50.556Z,13.93
2024-05-09T18:08:20.744Z,13.90
2024-05-09T18:10:48.275Z,14.10
2024-05-09T18:13:18.654Z,13.88
2024-05-09T18:15:46.375Z,13.48
2024-05-09T18:18:17.002Z,14.52
2024-05-09T18:20:47.436Z,13.35
2024-05-09T18:23:19.465Z,13.60
2024-05-09T18:25:47.677Z,12.60
2024-05-09T18:28:18.430Z,12.95
2024-05-09T18:30:46.068Z,13.70
2024-05-09T18:33:16.917Z,12.73
2024-05-09T18:35:47.202Z,12.32
2024-05-09T18:38:17.712Z,12.90
2024-05-09T18:43:26.184Z,13.95
2024-05-09T18:45:58.808Z,14.60
2024-05-09T18:48:29.058Z,12.90
2024-05-09T18:50:59.373Z,13.88
2024-05-09T18:53:29.461Z,14.05
2024-05-09T18:55:57.560Z,13.35
2024-05-09T18:58:27.642Z,13.30
2024-05-09T19:00:57.113Z,13.60
2024-05-09T19:03:28.831Z,14.60
2024-05-09T19:05:59.565Z,13.68
2024-05-09T19:10:58.419Z,14.63
2024-05-09T19:13:28.646Z,15.20
2024-05-09T19:15:56.978Z,15.68
2024-05-09T19:18:27.415Z,14.70
2024-05-09T19:20:54.951Z,15.43
2024-05-09T19:23:27.670Z,15.95
2024-05-09T19:25:55.193Z,15.23
2024-05-09T19:28:25.478Z,14.75
2024-05-09T19:30:53.158Z,15.82
2024-05-09T19:33:23.457Z,15.93
2024-05-09T19:35:51.056Z,16.02
2024-05-09T19:38:21.512Z,17.63
2024-05-09T19:40:51.959Z,17.10
2024-05-09T19:43:22.303Z,19.02
2024-05-09T19:45:50.054Z,18.02
2024-05-09T19:48:21.053Z,18.05
2024-05-09T19:50:52.366Z,16.77
2024-05-09T19:53:23.353Z,17.40
2024-05-09T19:55:53.694Z,16.85
2024-05-09T19:58:24.886Z,16.30
2024-05-09T20:00:52.640Z,16.50
2024-05-09T20:03:22.890Z,14.98
2024-05-09T20:05:50.543Z,15.30
2024-05-09T20:08:20.673Z,16.63
2024-05-09T20:10:48.417Z,16.02
2024-05-09T20:13:21.260Z,15.73
2024-05-09T20:15:49.265Z,16.27
2024-05-09T20:18:20.971Z,17.02
2024-05-09T20:20:51.634Z,16.30
2024-05-09T20:23:23.870Z,16.63
2024-05-09T20:25:51.478Z,17.23
2024-05-09T20:28:24.498Z,17.10
2024-05-09T20:30:52.147Z,16.08
2024-05-09T20:33:22.403Z,15.70
2024-05-09T20:35:49.849Z,18.35
2024-05-09T20:38:19.954Z,17.52
2024-05-09T20:40:47.690Z,17.58
2024-05-09T20:43:18.094Z,17.13
2024-05-09T20:45:48.804Z,17.25
2024-05-09T20:50:46.539Z,16.92
2024-05-09T20:53:16.867Z,16.77
2024-05-09T20:55:45.112Z,15.70
2024-05-09T20:58:15.706Z,16.88
2024-05-09T21:00:45.697Z,16.40
2024-05-09T21:03:22.536Z,15.80
2024-05-09T21:05:50.195Z,15.10
2024-05-09T21:08:20.442Z,15.88
2024-05-09T21:10:48.202Z,17.00
2024-05-09T21:13:18.483Z,18.17
2024-05-09T21:15:46.431Z,17.70
2024-05-09T21:18:19.361Z,18.15
2024-05-09T21:20:46.842Z,18.52
2024-05-09T21:23:16.920Z,18.73
2024-05-09T21:25:44.426Z,19.58
2024-05-09T21:28:15.183Z,19.98
2024-05-09T21:30:43.414Z,19.92
2024-05-09T21:33:15.266Z,20.13
2024-05-09T21:35:45.781Z,19.48
2024-05-09T21:38:16.319Z,19.05
2024-05-09T21:43:15.086Z,18.95
2024-05-09T21:45:43.621Z,20.10
2024-05-09T21:48:15.843Z,21.00
2024-05-09T21:50:45.959Z,18.63
2024-05-09T21:53:17.016Z,20.63
2024-05-09T21:55:44.639Z,19.13
2024-05-09T21:58:15.677Z,20.00
2024-05-09T22:00:45.635Z,18.13
2024-05-09T22:03:16.489Z,20.48
2024-05-09T22:08:16.793Z,19.00
2024-05-09T22:10:44.692Z,20.67
2024-05-09T22:13:16.824Z,20.98
2024-05-09T22:15:44.715Z,19.63
2024-05-09T22:18:15.044Z,20.02
2024-05-09T22:20:45.444Z,19.52
2024-05-09T22:23:19.190Z,16.65
2024-05-09T22:25:46.743Z,16.73
2024-05-09T22:28:18.061Z,17.65
2024-05-09T22:30:47.190Z,17.80
2024-05-09T22:33:18.194Z,18.83
2024-05-09T22:35:45.735Z,19.13
2024-05-09T22:38:18.542Z,19.65
2024-05-09T22:40:49.146Z,19.55
2024-05-09T22:43:24.240Z,17.50
2024-05-09T22:45:54.358Z,18.42
2024-05-09T22:48:25.582Z,20.27
2024-05-09T22:50:54.236Z,20.58
2024-05-09T22:53:27.809Z,22.23
2024-05-09T22:55:55.221Z,21.05
2024-05-09T22:58:26.187Z,23.92
2024-05-09T23:00:53.954Z,22.23
2024-05-09T23:03:24.408Z,20.80
2024-05-09T23:05:52.011Z,20.80
2024-05-09T23:08:22.057Z,18.90
2024-05-09T23:10:52.292Z,19.73
2024-05-09T23:13:22.670Z,20.17
2024-05-09T23:15:50.370Z,17.77
2024-05-09T23:18:20.820Z,17.40
2024-05-09T23:20:48.463Z,17.80
2024-05-09T23:23:18.678Z,18.75
2024-05-09T23:25:46.201Z,17.90
2024-05-09T23:28:18.977Z,20.17
2024-05-09T23:30:46.530Z,19.90
2024-05-09T23:33:16.797Z,20.52
2024-05-09T23:35:44.809Z,20.38
2024-05-09T23:38:15.338Z,20.60
2024-05-09T23:40:43.572Z,20.70
2024-05-09T23:43:14.174Z,21.17
2024-05-09T23:48:14.738Z,22.73
2024-05-09T23:50:42.485Z,23.40
2024-05-09T23:53:14.367Z,24.48
2024-05-09T23:55:41.966Z,22.75
2024-05-09T23:58:12.119Z,20.98
